sensor_id;sensor_type;location;lat;lon;timestamp;P1;durP1;ratioP1;P2;durP2;ratioP2
49340;SDS011;35209;51.050;13.678;2023-04-23T00:04:54;9.20;;;6.30;;
49340;SDS011;35209;51.050;13.678;2023-04-23T00:10:03;7.10;;;6.28;;
49340;SDS011;35209;51.050;13.678;2023-04-23T00:15:08;7.20;;;6.43;;
49340;SDS011;35209;51.050;13.678;2023-04-23T00:20:11;6.47;;;5.85;;
49340;SDS011;35209;51.050;13.678;2023-04-23T00:25:13;7.85;;;5.60;;
49340;SDS011;35209;51.050;13.678;2023-04-23T00:30:15;6.97;;;5.82;;
49340;SDS011;35209;51.050;13.678;2023-04-23T00:35:19;5.70;;;4.90;;
49340;SDS011;35209;51.050;13.678;2023-04-23T00:40:21;6.35;;;5.40;;
49340;SDS011;35209;51.050;13.678;2023-04-23T00:45:23;5.45;;;4.95;;
49340;SDS011;35209;51.050;13.678;2023-04-23T00:50:25;5.32;;;4.72;;
49340;SDS011;35209;51.050;13.678;2023-04-23T00:55:27;5.60;;;5.10;;
49340;SDS011;35209;51.050;13.678;2023-04-23T01:00:29;5.93;;;4.22;;
49340;SDS011;35209;51.050;13.678;2023-04-23T01:05:31;5.07;;;4.57;;
49340;SDS011;35209;51.050;13.678;2023-04-23T01:10:33;6.18;;;4.88;;
49340;SDS011;35209;51.050;13.678;2023-04-23T01:15:35;4.90;;;4.40;;
49340;SDS011;35209;51.050;13.678;2023-04-23T01:20:36;6.80;;;4.75;;
49340;SDS011;35209;51.050;13.678;2023-04-23T01:25:39;10.10;;;4.35;;
49340;SDS011;35209;51.050;13.678;2023-04-23T01:30:41;5.35;;;4.88;;
49340;SDS011;35209;51.050;13.678;2023-04-23T01:35:44;5.35;;;4.18;;
49340;SDS011;35209;51.050;13.678;2023-04-23T01:40:47;4.95;;;4.43;;
49340;SDS011;35209;51.050;13.678;2023-04-23T01:45:49;5.38;;;4.85;;
49340;SDS011;35209;51.050;13.678;2023-04-23T01:50:51;9.70;;;6.07;;
49340;SDS011;35209;51.050;13.678;2023-04-23T01:55:54;8.10;;;5.60;;
49340;SDS011;35209;51.050;13.678;2023-04-23T02:00:56;5.88;;;5.10;;
49340;SDS011;35209;51.050;13.678;2023-04-23T02:05:58;6.80;;;6.10;;
49340;SDS011;35209;51.050;13.678;2023-04-23T02:11:01;5.85;;;5.32;;
49340;SDS011;35209;51.050;13.678;2023-04-23T02:16:03;6.45;;;5.28;;
49340;SDS011;35209;51.050;13.678;2023-04-23T02:21:05;6.22;;;5.50;;
49340;SDS011;35209;51.050;13.678;2023-04-23T02:26:06;6.63;;;5.40;;
49340;SDS011;35209;51.050;13.678;2023-04-23T02:31:08;6.28;;;5.72;;
49340;SDS011;35209;51.050;13.678;2023-04-23T02:36:12;5.68;;;5.00;;
49340;SDS011;35209;51.050;13.678;2023-04-23T02:41:14;6.63;;;4.82;;
49340;SDS011;35209;51.050;13.678;2023-04-23T02:46:16;5.32;;;4.82;;
49340;SDS011;35209;51.050;13.678;2023-04-23T02:51:17;5.88;;;4.63;;
49340;SDS011;35209;51.050;13.678;2023-04-23T02:56:19;6.22;;;5.13;;
49340;SDS011;35209;51.050;13.678;2023-04-23T03:01:21;8.05;;;5.15;;
49340;SDS011;35209;51.050;13.678;2023-04-23T03:06:23;5.03;;;4.53;;
49340;SDS011;35209;51.050;13.678;2023-04-23T03:11:25;6.18;;;4.93;;
49340;SDS011;35209;51.050;13.678;2023-04-23T03:16:28;5.18;;;4.72;;
49340;SDS011;35209;51.050;13.678;2023-04-23T03:21:31;5.20;;;4.70;;
49340;SDS011;35209;51.050;13.678;2023-04-23T03:26:33;6.60;;;5.05;;
49340;SDS011;35209;51.050;13.678;2023-04-23T03:31:35;8.43;;;6.00;;
49340;SDS011;35209;51.050;13.678;2023-04-23T03:36:38;4.70;;;4.10;;
49340;SDS011;35209;51.050;13.678;2023-04-23T03:41:40;7.88;;;5.28;;
49340;SDS011;35209;51.050;13.678;2023-04-23T03:46:44;5.60;;;5.10;;
49340;SDS011;35209;51.050;13.678;2023-04-23T03:51:49;6.60;;;5.07;;
49340;SDS011;35209;51.050;13.678;2023-04-23T03:56:52;7.90;;;5.60;;
49340;SDS011;35209;51.050;13.678;2023-04-23T04:02:01;6.95;;;5.38;;
49340;SDS011;35209;51.050;13.678;2023-04-23T04:07:04;11.05;;;5.47;;
49340;SDS011;35209;51.050;13.678;2023-04-23T04:12:08;5.03;;;4.63;;
49340;SDS011;35209;51.050;13.678;2023-04-23T04:17:09;4.75;;;4.25;;
49340;SDS011;35209;51.050;13.678;2023-04-23T04:22:13;5.28;;;4.88;;
49340;SDS011;35209;51.050;13.678;2023-04-23T04:27:15;5.75;;;4.82;;
49340;SDS011;35209;51.050;13.678;2023-04-23T04:32:17;5.20;;;4.70;;
49340;SDS011;35209;51.050;13.678;2023-04-23T04:37:19;9.95;;;4.88;;
49340;SDS011;35209;51.050;13.678;2023-04-23T04:42:21;6.18;;;5.53;;
49340;SDS011;35209;51.050;13.678;2023-04-23T04:47:23;5.53;;;4.97;;
49340;SDS011;35209;51.050;13.678;2023-04-23T04:52:26;10.10;;;4.60;;
49340;SDS011;35209;51.050;13.678;2023-04-23T04:57:28;5.32;;;4.55;;
49340;SDS011;35209;51.050;13.678;2023-04-23T05:02:29;4.75;;;4.20;;
49340;SDS011;35209;51.050;13.678;2023-04-23T05:07:31;4.80;;;4.30;;
49340;SDS011;35209;51.050;13.678;2023-04-23T05:12:33;5.05;;;4.55;;
49340;SDS011;35209;51.050;13.678;2023-04-23T05:17:35;5.18;;;4.55;;
49340;SDS011;35209;51.050;13.678;2023-04-23T05:22:40;5.45;;;4.88;;
49340;SDS011;35209;51.050;13.678;2023-04-23T05:27:42;6.03;;;5.03;;
49340;SDS011;35209;51.050;13.678;2023-04-23T05:32:44;5.25;;;4.75;;
49340;SDS011;35209;51.050;13.678;2023-04-23T05:37:46;5.47;;;4.97;;
49340;SDS011;35209;51.050;13.678;2023-04-23T05:42:48;8.02;;;5.03;;
49340;SDS011;35209;51.050;13.678;2023-04-23T05:47:50;6.28;;;5.68;;
49340;SDS011;35209;51.050;13.678;2023-04-23T05:52:52;5.35;;;4.85;;
49340;SDS011;35209;51.050;13.678;2023-04-23T05:57:54;6.28;;;5.68;;
49340;SDS011;35209;51.050;13.678;2023-04-23T06:02:56;6.47;;;4.70;;
49340;SDS011;35209;51.050;13.678;2023-04-23T06:07:58;6.20;;;5.40;;
49340;SDS011;35209;51.050;13.678;2023-04-23T06:12:59;4.78;;;4.38;;
49340;SDS011;35209;51.050;13.678;2023-04-23T06:18:01;5.13;;;4.72;;
49340;SDS011;35209;51.050;13.678;2023-04-23T06:23:03;4.55;;;4.15;;
49340;SDS011;35209;51.050;13.678;2023-04-23T06:28:05;1.52;;;1.38;;
49340;SDS011;35209;51.050;13.678;2023-04-23T06:33:16;1.25;;;1.00;;
49340;SDS011;35209;51.050;13.678;2023-04-23T06:38:17;2.72;;;1.50;;
49340;SDS011;35209;51.050;13.678;2023-04-23T06:43:21;1.65;;;1.20;;
49340;SDS011;35209;51.050;13.678;2023-04-23T06:48:41;3.22;;;1.60;;
49340;SDS011;35209;51.050;13.678;2023-04-23T06:53:43;2.35;;;1.60;;
49340;SDS011;35209;51.050;13.678;2023-04-23T06:58:45;1.95;;;1.25;;
49340;SDS011;35209;51.050;13.678;2023-04-23T07:03:52;1.85;;;1.30;;
49340;SDS011;35209;51.050;13.678;2023-04-23T07:08:55;1.77;;;1.33;;
49340;SDS011;35209;51.050;13.678;2023-04-23T07:13:56;1.30;;;1.00;;
49340;SDS011;35209;51.050;13.678;2023-04-23T07:18:59;1.35;;;1.10;;
49340;SDS011;35209;51.050;13.678;2023-04-23T07:24:02;2.00;;;1.50;;
49340;SDS011;35209;51.050;13.678;2023-04-23T07:29:07;3.15;;;1.40;;
49340;SDS011;35209;51.050;13.678;2023-04-23T07:34:11;1.73;;;1.55;;
49340;SDS011;35209;51.050;13.678;2023-04-23T07:39:13;4.03;;;1.77;;
49340;SDS011;35209;51.050;13.678;2023-04-23T07:44:15;2.65;;;1.27;;
49340;SDS011;35209;51.050;13.678;2023-04-23T07:49:16;2.10;;;1.65;;
49340;SDS011;35209;51.050;13.678;2023-04-23T07:54:18;2.35;;;1.80;;
49340;SDS011;35209;51.050;13.678;2023-04-23T07:59:21;2.08;;;1.63;;
49340;SDS011;35209;51.050;13.678;2023-04-23T08:04:23;1.15;;;0.80;;
49340;SDS011;35209;51.050;13.678;2023-04-23T08:09:25;4.13;;;1.25;;
49340;SDS011;35209;51.050;13.678;2023-04-23T08:14:27;1.30;;;0.90;;
49340;SDS011;35209;51.050;13.678;2023-04-23T08:19:28;3.13;;;0.70;;
49340;SDS011;35209;51.050;13.678;2023-04-23T08:24:33;0.60;;;0.60;;
49340;SDS011;35209;51.050;13.678;2023-04-23T08:29:35;1.00;;;0.55;;
49340;SDS011;35209;51.050;13.678;2023-04-23T08:34:37;3.30;;;1.00;;
49340;SDS011;35209;51.050;13.678;2023-04-23T08:39:39;0.88;;;0.70;;
49340;SDS011;35209;51.050;13.678;2023-04-23T08:44:41;1.83;;;0.80;;
49340;SDS011;35209;51.050;13.678;2023-04-23T08:49:44;2.55;;;0.90;;
49340;SDS011;35209;51.050;13.678;2023-04-23T08:54:49;0.93;;;0.50;;
49340;SDS011;35209;51.050;13.678;2023-04-23T09:04:55;2.28;;;0.55;;
49340;SDS011;35209;51.050;13.678;2023-04-23T09:09:57;0.45;;;0.40;;
49340;SDS011;35209;51.050;13.678;2023-04-23T09:14:59;0.85;;;0.73;;
49340;SDS011;35209;51.050;13.678;2023-04-23T09:20:02;1.50;;;0.50;;
49340;SDS011;35209;51.050;13.678;2023-04-23T09:25:04;0.52;;;0.20;;
49340;SDS011;35209;51.050;13.678;2023-04-23T09:30:08;0.50;;;0.40;;
49340;SDS011;35209;51.050;13.678;2023-04-23T09:35:13;0.30;;;0.28;;
49340;SDS011;35209;51.050;13.678;2023-04-23T09:40:16;1.75;;;0.40;;
49340;SDS011;35209;51.050;13.678;2023-04-23T09:45:20;0.47;;;0.30;;
49340;SDS011;35209;51.050;13.678;2023-04-23T09:50:36;0.40;;;0.40;;
49340;SDS011;35209;51.050;13.678;2023-04-23T10:00:44;0.40;;;0.40;;
49340;SDS011;35209;51.050;13.678;2023-04-23T10:05:45;1.00;;;0.40;;
49340;SDS011;35209;51.050;13.678;2023-04-23T10:11:01;1.42;;;0.40;;
49340;SDS011;35209;51.050;13.678;2023-04-23T10:16:20;0.63;;;0.40;;
49340;SDS011;35209;51.050;13.678;2023-04-23T10:21:30;0.85;;;0.32;;
49340;SDS011;35209;51.050;13.678;2023-04-23T10:26:55;0.40;;;0.40;;
49340;SDS011;35209;51.050;13.678;2023-04-23T10:32:02;0.60;;;0.40;;
49340;SDS011;35209;51.050;13.678;2023-04-23T10:37:05;1.15;;;0.43;;
49340;SDS011;35209;51.050;13.678;2023-04-23T10:42:08;0.75;;;0.38;;
49340;SDS011;35209;51.050;13.678;2023-04-23T10:47:14;0.45;;;0.30;;
49340;SDS011;35209;51.050;13.678;2023-04-23T10:52:17;0.73;;;0.40;;
49340;SDS011;35209;51.050;13.678;2023-04-23T10:57:24;0.90;;;0.40;;
49340;SDS011;35209;51.050;13.678;2023-04-23T11:02:26;1.65;;;0.30;;
49340;SDS011;35209;51.050;13.678;2023-04-23T11:13:24;0.40;;;0.40;;
49340;SDS011;35209;51.050;13.678;2023-04-23T11:18:27;0.57;;;0.40;;
49340;SDS011;35209;51.050;13.678;2023-04-23T11:23:29;0.50;;;0.45;;
49340;SDS011;35209;51.050;13.678;2023-04-23T11:28:34;0.60;;;0.55;;
49340;SDS011;35209;51.050;13.678;2023-04-23T11:33:37;0.77;;;0.50;;
49340;SDS011;35209;51.050;13.678;2023-04-23T11:38:39;1.45;;;0.50;;
49340;SDS011;35209;51.050;13.678;2023-04-23T11:43:41;0.43;;;0.43;;
49340;SDS011;35209;51.050;13.678;2023-04-23T11:48:43;1.15;;;0.40;;
49340;SDS011;35209;51.050;13.678;2023-04-23T11:53:48;0.32;;;0.32;;
49340;SDS011;35209;51.050;13.678;2023-04-23T11:59:00;1.02;;;0.60;;
49340;SDS011;35209;51.050;13.678;2023-04-23T12:04:14;1.02;;;0.65;;
49340;SDS011;35209;51.050;13.678;2023-04-23T12:09:18;0.85;;;0.63;;
49340;SDS011;35209;51.050;13.678;2023-04-23T12:14:25;0.50;;;0.50;;
49340;SDS011;35209;51.050;13.678;2023-04-23T12:19:29;0.82;;;0.50;;
49340;SDS011;35209;51.050;13.678;2023-04-23T12:24:44;1.10;;;0.45;;
49340;SDS011;35209;51.050;13.678;2023-04-23T12:29:57;0.90;;;0.75;;
49340;SDS011;35209;51.050;13.678;2023-04-23T12:35:00;0.85;;;0.45;;
49340;SDS011;35209;51.050;13.678;2023-04-23T12:40:02;0.70;;;0.40;;
49340;SDS011;35209;51.050;13.678;2023-04-23T12:45:07;0.75;;;0.40;;
49340;SDS011;35209;51.050;13.678;2023-04-23T12:50:10;0.52;;;0.40;;
49340;SDS011;35209;51.050;13.678;2023-04-23T12:55:12;0.57;;;0.40;;
49340;SDS011;35209;51.050;13.678;2023-04-23T13:00:14;0.38;;;0.38;;
49340;SDS011;35209;51.050;13.678;2023-04-23T13:05:16;0.68;;;0.40;;
49340;SDS011;35209;51.050;13.678;2023-04-23T13:10:18;0.77;;;0.38;;
49340;SDS011;35209;51.050;13.678;2023-04-23T13:15:20;0.50;;;0.50;;
49340;SDS011;35209;51.050;13.678;2023-04-23T13:20:22;0.30;;;0.30;;
49340;SDS011;35209;51.050;13.678;2023-04-23T13:25:25;0.65;;;0.40;;
49340;SDS011;35209;51.050;13.678;2023-04-23T13:30:27;0.68;;;0.40;;
49340;SDS011;35209;51.050;13.678;2023-04-23T13:35:28;0.63;;;0.40;;
49340;SDS011;35209;51.050;13.678;2023-04-23T13:40:30;0.47;;;0.40;;
49340;SDS011;35209;51.050;13.678;2023-04-23T13:45:32;0.70;;;0.30;;
49340;SDS011;35209;51.050;13.678;2023-04-23T13:50:34;0.30;;;0.30;;
49340;SDS011;35209;51.050;13.678;2023-04-23T13:55:36;0.40;;;0.40;;
49340;SDS011;35209;51.050;13.678;2023-04-23T14:00:40;0.60;;;0.40;;
49340;SDS011;35209;51.050;13.678;2023-04-23T14:05:43;0.30;;;0.30;;
49340;SDS011;35209;51.050;13.678;2023-04-23T14:10:45;0.90;;;0.40;;
49340;SDS011;35209;51.050;13.678;2023-04-23T14:15:47;0.47;;;0.47;;
49340;SDS011;35209;51.050;13.678;2023-04-23T14:20:49;0.47;;;0.43;;
49340;SDS011;35209;51.050;13.678;2023-04-23T14:26:21;0.85;;;0.30;;
49340;SDS011;35209;51.050;13.678;2023-04-23T14:31:48;0.57;;;0.40;;
49340;SDS011;35209;51.050;13.678;2023-04-23T14:36:50;0.90;;;0.40;;
49340;SDS011;35209;51.050;13.678;2023-04-23T14:41:54;0.50;;;0.47;;
49340;SDS011;35209;51.050;13.678;2023-04-23T14:46:56;0.68;;;0.50;;
49340;SDS011;35209;51.050;13.678;2023-04-23T14:51:59;0.40;;;0.40;;
49340;SDS011;35209;51.050;13.678;2023-04-23T14:57:01;0.70;;;0.50;;
49340;SDS011;35209;51.050;13.678;2023-04-23T15:02:03;0.55;;;0.50;;
49340;SDS011;35209;51.050;13.678;2023-04-23T15:07:05;0.40;;;0.40;;
49340;SDS011;35209;51.050;13.678;2023-04-23T15:12:22;0.32;;;0.32;;
49340;SDS011;35209;51.050;13.678;2023-04-23T15:17:47;0.60;;;0.50;;
49340;SDS011;35209;51.050;13.678;2023-04-23T15:22:50;0.50;;;0.50;;
49340;SDS011;35209;51.050;13.678;2023-04-23T15:27:56;0.40;;;0.40;;
49340;SDS011;35209;51.050;13.678;2023-04-23T15:32:58;0.73;;;0.50;;
49340;SDS011;35209;51.050;13.678;2023-04-23T15:38:00;0.82;;;0.70;;
49340;SDS011;35209;51.050;13.678;2023-04-23T15:43:01;1.40;;;0.80;;
49340;SDS011;35209;51.050;13.678;2023-04-23T15:48:03;1.85;;;0.68;;
49340;SDS011;35209;51.050;13.678;2023-04-23T15:53:05;0.70;;;0.70;;
49340;SDS011;35209;51.050;13.678;2023-04-23T15:58:07;1.25;;;0.70;;
49340;SDS011;35209;51.050;13.678;2023-04-23T16:03:09;0.98;;;0.98;;
49340;SDS011;35209;51.050;13.678;2023-04-23T16:08:11;0.60;;;0.55;;
49340;SDS011;35209;51.050;13.678;2023-04-23T16:13:14;0.43;;;0.43;;
49340;SDS011;35209;51.050;13.678;2023-04-23T16:18:16;0.68;;;0.50;;
49340;SDS011;35209;51.050;13.678;2023-04-23T16:23:17;0.70;;;0.50;;
49340;SDS011;35209;51.050;13.678;2023-04-23T16:28:19;0.60;;;0.57;;
49340;SDS011;35209;51.050;13.678;2023-04-23T16:33:21;0.60;;;0.60;;
49340;SDS011;35209;51.050;13.678;2023-04-23T16:38:24;1.27;;;0.60;;
49340;SDS011;35209;51.050;13.678;2023-04-23T16:43:26;0.50;;;0.50;;
49340;SDS011;35209;51.050;13.678;2023-04-23T16:48:28;0.88;;;0.70;;
49340;SDS011;35209;51.050;13.678;2023-04-23T16:53:30;0.77;;;0.60;;
49340;SDS011;35209;51.050;13.678;2023-04-23T16:58:32;0.70;;;0.60;;
49340;SDS011;35209;51.050;13.678;2023-04-23T17:03:35;0.88;;;0.70;;
49340;SDS011;35209;51.050;13.678;2023-04-23T17:08:37;1.33;;;0.98;;
49340;SDS011;35209;51.050;13.678;2023-04-23T17:13:39;1.63;;;0.80;;
49340;SDS011;35209;51.050;13.678;2023-04-23T17:18:43;1.42;;;1.00;;
49340;SDS011;35209;51.050;13.678;2023-04-23T17:23:46;1.35;;;1.00;;
49340;SDS011;35209;51.050;13.678;2023-04-23T17:28:48;1.85;;;1.23;;
49340;SDS011;35209;51.050;13.678;2023-04-23T17:33:50;2.10;;;1.10;;
49340;SDS011;35209;51.050;13.678;2023-04-23T17:38:53;1.73;;;1.05;;
49340;SDS011;35209;51.050;13.678;2023-04-23T17:43:55;2.65;;;2.38;;
49340;SDS011;35209;51.050;13.678;2023-04-23T17:48:57;4.82;;;4.35;;
49340;SDS011;35209;51.050;13.678;2023-04-23T17:53:59;6.32;;;5.35;;
49340;SDS011;35209;51.050;13.678;2023-04-23T17:59:02;8.10;;;6.85;;
49340;SDS011;35209;51.050;13.678;2023-04-23T18:04:04;6.40;;;5.90;;
49340;SDS011;35209;51.050;13.678;2023-04-23T18:09:06;6.72;;;5.35;;
49340;SDS011;35209;51.050;13.678;2023-04-23T18:14:09;5.53;;;5.13;;
49340;SDS011;35209;51.050;13.678;2023-04-23T18:19:11;4.20;;;3.42;;
49340;SDS011;35209;51.050;13.678;2023-04-23T18:24:13;3.92;;;3.63;;
49340;SDS011;35209;51.050;13.678;2023-04-23T18:29:18;4.10;;;3.42;;
49340;SDS011;35209;51.050;13.678;2023-04-23T18:34:23;3.22;;;3.03;;
49340;SDS011;35209;51.050;13.678;2023-04-23T18:39:25;3.40;;;3.03;;
49340;SDS011;35209;51.050;13.678;2023-04-23T18:44:29;2.90;;;2.20;;
49340;SDS011;35209;51.050;13.678;2023-04-23T18:49:36;2.50;;;2.30;;
49340;SDS011;35209;51.050;13.678;2023-04-23T18:54:40;3.38;;;2.53;;
49340;SDS011;35209;51.050;13.678;2023-04-23T18:59:44;2.90;;;2.70;;
49340;SDS011;35209;51.050;13.678;2023-04-23T19:04:48;2.80;;;2.60;;
49340;SDS011;35209;51.050;13.678;2023-04-23T19:09:50;2.60;;;2.40;;
49340;SDS011;35209;51.050;13.678;2023-04-23T19:14:52;2.45;;;2.25;;
49340;SDS011;35209;51.050;13.678;2023-04-23T19:19:53;3.25;;;2.95;;
49340;SDS011;35209;51.050;13.678;2023-04-23T19:24:55;2.67;;;2.40;;
49340;SDS011;35209;51.050;13.678;2023-04-23T19:29:57;3.15;;;2.85;;
49340;SDS011;35209;51.050;13.678;2023-04-23T19:35:01;2.45;;;2.25;;
49340;SDS011;35209;51.050;13.678;2023-04-23T19:40:05;3.67;;;2.70;;
49340;SDS011;35209;51.050;13.678;2023-04-23T19:45:07;3.53;;;3.22;;
49340;SDS011;35209;51.050;13.678;2023-04-23T19:50:09;2.70;;;2.50;;
49340;SDS011;35209;51.050;13.678;2023-04-23T19:55:11;3.42;;;3.20;;
49340;SDS011;35209;51.050;13.678;2023-04-23T20:00:13;3.10;;;2.90;;
49340;SDS011;35209;51.050;13.678;2023-04-23T20:05:15;3.33;;;2.30;;
49340;SDS011;35209;51.050;13.678;2023-04-23T20:10:17;3.30;;;3.00;;
49340;SDS011;35209;51.050;13.678;2023-04-23T20:15:19;2.97;;;2.78;;
49340;SDS011;35209;51.050;13.678;2023-04-23T20:20:24;3.42;;;3.22;;
49340;SDS011;35209;51.050;13.678;2023-04-23T20:25:26;3.75;;;3.45;;
49340;SDS011;35209;51.050;13.678;2023-04-23T20:30:27;3.95;;;3.63;;
49340;SDS011;35209;51.050;13.678;2023-04-23T20:35:29;4.18;;;3.88;;
49340;SDS011;35209;51.050;13.678;2023-04-23T20:40:31;3.97;;;3.67;;
49340;SDS011;35209;51.050;13.678;2023-04-23T20:45:35;4.03;;;3.72;;
49340;SDS011;35209;51.050;13.678;2023-04-23T20:50:36;4.30;;;4.00;;
49340;SDS011;35209;51.050;13.678;2023-04-23T20:55:38;4.35;;;3.95;;
49340;SDS011;35209;51.050;13.678;2023-04-23T21:00:40;3.33;;;3.13;;
49340;SDS011;35209;51.050;13.678;2023-04-23T21:05:42;3.97;;;3.60;;
49340;SDS011;35209;51.050;13.678;2023-04-23T21:10:44;4.28;;;3.97;;
49340;SDS011;35209;51.050;13.678;2023-04-23T21:15:46;3.78;;;3.55;;
49340;SDS011;35209;51.050;13.678;2023-04-23T21:20:49;4.18;;;3.88;;
49340;SDS011;35209;51.050;13.678;2023-04-23T21:25:51;4.25;;;3.95;;
49340;SDS011;35209;51.050;13.678;2023-04-23T21:30:54;4.47;;;4.18;;
49340;SDS011;35209;51.050;13.678;2023-04-23T21:35:56;4.43;;;4.07;;
49340;SDS011;35209;51.050;13.678;2023-04-23T21:40:58;4.55;;;3.95;;
49340;SDS011;35209;51.050;13.678;2023-04-23T21:46:01;3.47;;;3.22;;
49340;SDS011;35209;51.050;13.678;2023-04-23T21:51:03;3.90;;;3.60;;
49340;SDS011;35209;51.050;13.678;2023-04-23T21:56:05;4.57;;;4.28;;
49340;SDS011;35209;51.050;13.678;2023-04-23T22:01:07;4.28;;;3.90;;
49340;SDS011;35209;51.050;13.678;2023-04-23T22:06:09;5.60;;;3.67;;
49340;SDS011;35209;51.050;13.678;2023-04-23T22:11:11;4.00;;;3.70;;
49340;SDS011;35209;51.050;13.678;2023-04-23T22:16:13;5.65;;;5.25;;
49340;SDS011;35209;51.050;13.678;2023-04-23T22:21:28;5.13;;;4.72;;
49340;SDS011;35209;51.050;13.678;2023-04-23T22:26:30;5.38;;;5.07;;
49340;SDS011;35209;51.050;13.678;2023-04-23T22:31:34;5.20;;;4.90;;
49340;SDS011;35209;51.050;13.678;2023-04-23T22:36:36;5.50;;;5.10;;
49340;SDS011;35209;51.050;13.678;2023-04-23T22:41:37;5.55;;;5.15;;
49340;SDS011;35209;51.050;13.678;2023-04-23T22:46:40;5.78;;;5.38;;
49340;SDS011;35209;51.050;13.678;2023-04-23T22:51:43;5.90;;;5.45;;
49340;SDS011;35209;51.050;13.678;2023-04-23T22:56:45;7.18;;;6.68;;
49340;SDS011;35209;51.050;13.678;2023-04-23T23:01:46;7.40;;;6.78;;
49340;SDS011;35209;51.050;13.678;2023-04-23T23:06:48;8.65;;;7.97;;
49340;SDS011;35209;51.050;13.678;2023-04-23T23:11:50;7.47;;;6.80;;
49340;SDS011;35209;51.050;13.678;2023-04-23T23:16:52;7.18;;;6.57;;
49340;SDS011;35209;51.050;13.678;2023-04-23T23:21:53;7.07;;;6.68;;
49340;SDS011;35209;51.050;13.678;2023-04-23T23:26:56;8.15;;;7.47;;
49340;SDS011;35209;51.050;13.678;2023-04-23T23:31:57;5.70;;;5.30;;
49340;SDS011;35209;51.050;13.678;2023-04-23T23:37:00;5.78;;;5.38;;
49340;SDS011;35209;51.050;13.678;2023-04-23T23:42:02;7.20;;;6.70;;
49340;SDS011;35209;51.050;13.678;2023-04-23T23:47:04;6.60;;;6.20;;
49340;SDS011;35209;51.050;13.678;2023-04-23T23:52:05;6.85;;;6.30;;
49340;SDS011;35209;51.050;13.678;2023-04-23T23:57:07;6.20;;;5.63;;
